createdAt,value
2022-12-04T00:02:29.561Z,1.42
2022-12-04T00:04:59.991Z,1.17
2022-12-04T00:07:30.395Z,1.58
2022-12-04T00:10:02.151Z,1.40
2022-12-04T00:12:33.562Z,1.33
2022-12-04T00:17:55.269Z,1.40
2022-12-04T00:20:25.976Z,1.10
2022-12-04T00:23:01.006Z,1.58
2022-12-04T00:25:36.356Z,1.92
2022-12-04T00:28:11.284Z,2.05
2022-12-04T00:30:44.454Z,1.75
2022-12-04T00:33:15.966Z,1.70
2022-12-04T00:35:46.423Z,1.75
2022-12-04T00:38:17.138Z,1.80
2022-12-04T00:40:53.177Z,2.35
2022-12-04T00:43:25.922Z,1.45
2022-12-04T00:45:56.381Z,2.13
2022-12-04T00:48:27.833Z,1.60
2022-12-04T00:51:00.458Z,1.10
2022-12-04T00:53:30.891Z,1.50
2022-12-04T00:56:01.462Z,1.30
2022-12-04T00:58:31.716Z,1.30
2022-12-04T01:01:10.683Z,1.23
2022-12-04T01:03:42.015Z,1.40
2022-12-04T01:06:22.189Z,1.40
2022-12-04T01:08:54.100Z,1.50
2022-12-04T01:11:26.293Z,2.10
2022-12-04T01:14:00.566Z,1.67
2022-12-04T01:16:36.572Z,1.40
2022-12-04T01:19:09.340Z,1.77
2022-12-04T01:21:40.152Z,1.42
2022-12-04T01:24:12.503Z,1.33
2022-12-04T01:26:44.094Z,1.60
2022-12-04T01:29:15.219Z,1.42
2022-12-04T01:31:45.742Z,1.52
2022-12-04T01:34:16.360Z,1.05
2022-12-04T01:36:47.097Z,1.25
2022-12-04T01:39:17.343Z,1.40
2022-12-04T01:41:48.890Z,1.17
2022-12-04T01:44:26.075Z,1.17
2022-12-04T01:46:58.629Z,1.48
2022-12-04T01:49:48.620Z,1.63
2022-12-04T01:52:26.596Z,1.42
2022-12-04T01:57:36.069Z,1.40
2022-12-04T02:00:15.826Z,1.10
2022-12-04T02:02:49.115Z,1.25
2022-12-04T02:05:23.599Z,1.23
2022-12-04T02:07:59.023Z,1.10
2022-12-04T02:10:58.061Z,1.27
2022-12-04T02:13:59.543Z,1.20
2022-12-04T02:16:47.409Z,1.00
2022-12-04T02:20:03.471Z,0.90
2022-12-04T02:22:47.783Z,1.30
2022-12-04T02:25:33.139Z,1.27
2022-12-04T02:28:18.358Z,0.80
2022-12-04T02:30:51.254Z,0.90
2022-12-04T02:33:27.703Z,1.20
2022-12-04T02:36:13.839Z,1.50
2022-12-04T02:39:13.642Z,1.00
2022-12-04T02:41:52.113Z,1.00
2022-12-04T02:44:30.054Z,1.05
2022-12-04T02:47:08.566Z,1.20
2022-12-04T02:49:43.997Z,1.20
2022-12-04T02:52:19.334Z,1.00
2022-12-04T02:54:55.285Z,1.52
2022-12-04T03:00:00.794Z,1.00
2022-12-04T03:02:54.839Z,1.00
2022-12-04T03:05:50.056Z,1.13
2022-12-04T03:08:25.982Z,1.13
2022-12-04T03:11:00.148Z,0.95
2022-12-04T03:13:47.635Z,1.00
2022-12-04T03:16:39.780Z,0.98
2022-12-04T03:19:28.772Z,0.90
2022-12-04T03:22:12.165Z,0.85
2022-12-04T03:24:56.458Z,1.25
2022-12-04T03:27:35.481Z,1.00
2022-12-04T03:30:17.924Z,0.98
2022-12-04T03:32:55.877Z,0.90
2022-12-04T03:35:47.469Z,1.13
2022-12-04T03:38:58.665Z,0.75
2022-12-04T03:41:46.490Z,0.95
2022-12-04T03:44:37.845Z,0.98
2022-12-04T03:47:23.376Z,1.02
2022-12-04T03:50:23.897Z,1.10
2022-12-04T03:52:57.597Z,1.00
2022-12-04T03:55:43.562Z,1.05
2022-12-04T03:58:22.162Z,1.00
2022-12-04T04:00:55.423Z,0.90
2022-12-04T04:03:32.607Z,0.80
2022-12-04T04:06:12.509Z,0.88
2022-12-04T04:08:46.977Z,1.35
2022-12-04T04:11:21.012Z,1.02
2022-12-04T04:14:15.839Z,0.93
2022-12-04T04:17:12.145Z,0.90
2022-12-04T04:20:02.420Z,0.80
2022-12-04T04:22:55.725Z,0.88
2022-12-04T04:25:28.861Z,1.20
2022-12-04T04:28:02.852Z,1.00
2022-12-04T04:30:38.023Z,1.40
2022-12-04T04:33:18.972Z,0.90
2022-12-04T04:36:29.057Z,0.90
2022-12-04T04:39:12.315Z,0.90
2022-12-04T04:41:58.265Z,0.93
2022-12-04T04:44:47.872Z,0.90
2022-12-04T04:47:37.354Z,1.20
2022-12-04T04:50:12.149Z,0.80
2022-12-04T04:52:45.401Z,0.93
2022-12-04T04:55:19.056Z,0.70
2022-12-04T04:57:50.392Z,0.90
2022-12-04T05:00:23.801Z,1.10
2022-12-04T05:02:54.601Z,0.82
2022-12-04T05:05:24.911Z,1.00
2022-12-04T05:07:55.244Z,1.15
2022-12-04T05:10:25.710Z,1.20
2022-12-04T05:12:56.032Z,0.93
2022-12-04T05:15:26.241Z,1.13
2022-12-04T05:17:56.449Z,0.98
2022-12-04T05:20:26.675Z,1.33
2022-12-04T05:22:56.969Z,0.90
2022-12-04T05:25:27.751Z,1.00
2022-12-04T05:27:58.426Z,1.17
2022-12-04T05:30:29.084Z,0.80
2022-12-04T05:32:59.392Z,1.10
2022-12-04T05:35:30.191Z,0.80
2022-12-04T05:38:00.438Z,0.88
2022-12-04T05:40:30.709Z,0.80
2022-12-04T05:43:01.424Z,1.10
2022-12-04T05:45:32.079Z,1.08
2022-12-04T05:48:02.331Z,0.82
2022-12-04T05:50:32.979Z,1.10
2022-12-04T05:53:03.702Z,1.00
2022-12-04T05:55:35.190Z,0.85
2022-12-04T05:58:06.395Z,1.20
2022-12-04T06:00:36.574Z,1.42
2022-12-04T06:03:09.509Z,1.15
2022-12-04T06:05:41.113Z,0.98
2022-12-04T06:08:17.578Z,0.82
2022-12-04T06:10:48.449Z,0.90
2022-12-04T06:13:18.777Z,1.10
2022-12-04T06:15:48.995Z,1.30
2022-12-04T06:18:19.269Z,1.23
2022-12-04T06:20:49.576Z,1.27
2022-12-04T06:23:19.822Z,1.08
2022-12-04T06:25:51.135Z,1.20
2022-12-04T06:28:21.502Z,0.90
2022-12-04T06:30:51.682Z,1.48
2022-12-04T06:33:22.599Z,1.40
2022-12-04T06:36:09.102Z,1.20
2022-12-04T06:38:49.897Z,1.05
2022-12-04T06:41:22.969Z,1.48
2022-12-04T06:43:56.321Z,1.90
2022-12-04T06:46:28.836Z,1.67
2022-12-04T06:49:01.128Z,1.45
2022-12-04T06:51:34.899Z,1.30
2022-12-04T06:54:06.181Z,1.38
2022-12-04T06:56:38.196Z,1.20
2022-12-04T06:59:08.634Z,1.42
2022-12-04T07:01:42.613Z,1.08
2022-12-04T07:04:14.839Z,1.10
2022-12-04T07:06:45.830Z,1.30
2022-12-04T07:09:20.874Z,1.45
2022-12-04T07:11:57.165Z,1.23
2022-12-04T07:14:31.048Z,1.25
2022-12-04T07:17:02.947Z,2.20
2022-12-04T07:19:33.924Z,1.40
2022-12-04T07:22:07.260Z,1.10
2022-12-04T07:24:39.451Z,1.40
2022-12-04T07:27:10.175Z,1.27
2022-12-04T07:29:48.833Z,1.40
2022-12-04T07:32:19.763Z,1.88
2022-12-04T07:34:50.085Z,2.03
2022-12-04T07:37:20.404Z,0.95
2022-12-04T07:39:54.093Z,1.48
2022-12-04T07:42:24.941Z,1.33
2022-12-04T07:44:55.183Z,1.25
2022-12-04T07:47:25.984Z,1.20
2022-12-04T07:49:56.457Z,1.10
2022-12-04T07:52:26.885Z,1.20
2022-12-04T07:54:57.242Z,1.30
2022-12-04T07:57:28.159Z,1.60
2022-12-04T08:00:01.778Z,1.27
2022-12-04T08:02:32.616Z,1.23
2022-12-04T08:05:05.340Z,1.40
2022-12-04T08:07:37.202Z,1.10
2022-12-04T08:10:11.515Z,1.30
2022-12-04T08:12:46.301Z,1.40
2022-12-04T08:15:17.004Z,1.33
2022-12-04T08:17:49.928Z,1.88
2022-12-04T08:20:20.948Z,1.50
2022-12-04T08:22:52.160Z,1.50
2022-12-04T08:25:23.017Z,1.67
2022-12-04T08:27:55.258Z,1.20
2022-12-04T08:30:26.397Z,1.60
2022-12-04T08:32:57.952Z,1.23
2022-12-04T08:35:30.084Z,1.20
2022-12-04T08:38:00.861Z,1.58
2022-12-04T08:40:31.649Z,1.40
2022-12-04T08:43:04.329Z,1.40
2022-12-04T08:45:36.999Z,1.40
2022-12-04T08:48:07.876Z,1.58
2022-12-04T08:50:50.648Z,1.23
2022-12-04T08:53:21.787Z,2.00
2022-12-04T08:55:53.930Z,0.82
2022-12-04T08:58:26.109Z,1.40
2022-12-04T09:00:57.051Z,1.85
2022-12-04T09:03:30.918Z,1.60
2022-12-04T09:06:11.015Z,1.98
2022-12-04T09:08:47.942Z,1.50
2022-12-04T09:11:21.623Z,1.42
2022-12-04T09:13:52.714Z,1.27
2022-12-04T09:16:26.467Z,1.45
2022-12-04T09:18:58.281Z,1.67
2022-12-04T09:21:29.396Z,1.92
2022-12-04T09:24:01.115Z,1.70
2022-12-04T09:26:34.334Z,1.30
2022-12-04T09:29:18.997Z,1.92
2022-12-04T09:31:50.151Z,1.75
2022-12-04T09:34:23.239Z,1.40
2022-12-04T09:36:53.890Z,1.52
2022-12-04T09:39:26.563Z,1.90
2022-12-04T09:42:07.023Z,1.25
2022-12-04T09:44:52.804Z,1.60
2022-12-04T09:47:30.363Z,1.60
2022-12-04T09:50:09.921Z,1.40
2022-12-04T09:52:50.393Z,1.30
2022-12-04T09:55:40.058Z,2.00
2022-12-04T09:58:43.515Z,1.77
2022-12-04T10:01:54.781Z,1.63
2022-12-04T10:04:25.731Z,1.70
2022-12-04T10:07:22.957Z,2.33
2022-12-04T10:10:11.956Z,1.60
2022-12-04T10:13:20.005Z,2.08
2022-12-04T10:15:59.955Z,1.70
2022-12-04T10:18:51.949Z,1.90
2022-12-04T10:21:24.541Z,1.70
2022-12-04T10:24:01.572Z,2.05
2022-12-04T10:26:40.337Z,1.88
2022-12-04T10:29:18.745Z,2.08
2022-12-04T10:31:50.369Z,2.30
2022-12-04T10:34:28.273Z,2.28
2022-12-04T10:37:12.039Z,2.53
2022-12-04T10:40:14.815Z,1.92
2022-12-04T10:43:05.731Z,2.10
2022-12-04T10:45:36.049Z,1.50
2022-12-04T10:48:09.919Z,2.10
2022-12-04T10:50:44.335Z,2.55
2022-12-04T10:53:17.479Z,2.13
2022-12-04T10:55:48.874Z,2.60
2022-12-04T10:58:22.613Z,2.47
2022-12-04T11:01:13.632Z,2.40
2022-12-04T11:03:46.540Z,3.45
2022-12-04T11:06:17.952Z,1.80
2022-12-04T11:08:55.144Z,2.40
2022-12-04T11:11:37.261Z,2.60
2022-12-04T11:14:28.881Z,2.03
2022-12-04T11:17:10.992Z,3.33
2022-12-04T11:19:41.650Z,2.00
2022-12-04T11:22:21.794Z,2.13
2022-12-04T11:25:00.026Z,2.03
2022-12-04T11:27:36.430Z,2.42
2022-12-04T11:30:17.965Z,2.08
2022-12-04T11:32:50.127Z,2.10
2022-12-04T11:35:27.918Z,1.88
2022-12-04T11:38:11.932Z,1.95
2022-12-04T11:40:49.163Z,2.20
2022-12-04T11:43:21.927Z,2.78
2022-12-04T11:46:08.550Z,2.25
2022-12-04T11:48:49.728Z,2.57
2022-12-04T11:51:37.189Z,1.90
2022-12-04T11:54:55.144Z,2.35
2022-12-04T11:57:25.403Z,2.42
2022-12-04T12:00:23.107Z,2.08
2022-12-04T12:05:42.402Z,2.40
2022-12-04T12:08:33.468Z,1.92
2022-12-04T12:11:13.108Z,2.35
2022-12-04T12:14:06.157Z,2.05
2022-12-04T12:16:59.662Z,1.88
2022-12-04T12:19:47.511Z,2.17
2022-12-04T12:22:48.437Z,2.20
2022-12-04T12:25:32.310Z,2.15
2022-12-04T12:28:39.469Z,2.50
2022-12-04T12:31:33.117Z,2.70
2022-12-04T12:34:09.794Z,2.28
2022-12-04T12:39:23.710Z,1.85
2022-12-04T12:42:02.337Z,2.22
2022-12-04T12:44:49.868Z,2.35
2022-12-04T12:47:24.113Z,1.83
2022-12-04T12:50:17.643Z,2.15
2022-12-04T12:53:18.854Z,1.90
2022-12-04T12:56:12.856Z,2.20
2022-12-04T12:58:56.801Z,2.45
2022-12-04T13:02:05.304Z,1.80
2022-12-04T13:04:46.308Z,1.23
2022-12-04T13:07:36.980Z,1.60
2022-12-04T13:10:23.557Z,1.63
2022-12-04T13:13:34.285Z,1.23
2022-12-04T13:16:28.341Z,1.60
2022-12-04T13:19:32.724Z,1.52
2022-12-04T13:22:19.115Z,1.40
2022-12-04T13:25:08.316Z,1.50
2022-12-04T13:27:40.934Z,1.88
2022-12-04T13:30:34.263Z,1.73
2022-12-04T13:33:37.776Z,1.50
2022-12-04T13:36:33.156Z,1.55
2022-12-04T13:39:09.676Z,1.35
2022-12-04T13:41:42.556Z,1.60
2022-12-04T13:44:32.316Z,1.92
2022-12-04T13:47:11.699Z,1.67
2022-12-04T13:49:48.242Z,1.50
2022-12-04T13:52:45.897Z,1.60
2022-12-04T13:55:34.538Z,1.52
2022-12-04T13:58:36.654Z,1.23
2022-12-04T14:01:26.533Z,1.75
2022-12-04T14:03:59.620Z,1.40
2022-12-04T14:06:40.029Z,1.88
2022-12-04T14:09:31.979Z,1.90
2022-12-04T14:12:10.062Z,1.77
2022-12-04T14:14:54.565Z,2.17
2022-12-04T14:17:31.113Z,1.63
2022-12-04T14:20:22.384Z,2.00
2022-12-04T14:22:53.168Z,2.28
2022-12-04T14:25:48.808Z,1.90
2022-12-04T14:28:40.259Z,1.98
2022-12-04T14:31:21.354Z,2.50
2022-12-04T14:34:00.838Z,2.20
2022-12-04T14:36:49.075Z,2.28
2022-12-04T14:39:32.474Z,2.13
2022-12-04T14:42:22.138Z,2.67
2022-12-04T14:45:00.892Z,2.20
2022-12-04T14:47:49.508Z,2.42
2022-12-04T14:50:33.010Z,2.20
2022-12-04T14:53:29.048Z,2.00
2022-12-04T14:56:25.536Z,1.77
2022-12-04T14:58:57.321Z,1.67
2022-12-04T15:01:34.140Z,2.00
2022-12-04T15:04:12.722Z,2.15
2022-12-04T15:06:43.266Z,1.75
2022-12-04T15:09:40.570Z,2.70
2022-12-04T15:12:37.604Z,1.80
2022-12-04T15:15:29.759Z,2.72
2022-12-04T15:18:05.927Z,2.00
2022-12-04T15:20:53.183Z,1.85
2022-12-04T15:26:18.770Z,2.30
2022-12-04T15:28:53.722Z,1.80
2022-12-04T15:31:28.592Z,1.60
2022-12-04T15:34:03.939Z,1.80
2022-12-04T15:36:49.233Z,2.00
2022-12-04T15:39:31.438Z,1.70
2022-12-04T15:42:18.192Z,1.63
2022-12-04T15:45:24.084Z,1.70
2022-12-04T15:47:56.663Z,1.67
2022-12-04T15:50:30.376Z,2.10
2022-12-04T15:53:18.901Z,2.35
2022-12-04T15:55:55.802Z,1.88
2022-12-04T15:58:32.764Z,1.70
2022-12-04T16:01:10.021Z,1.67
2022-12-04T16:03:51.175Z,2.00
2022-12-04T16:06:26.182Z,1.67
2022-12-04T16:09:01.236Z,1.85
2022-12-04T16:11:41.073Z,1.60
2022-12-04T16:14:12.652Z,1.50
2022-12-04T16:16:54.795Z,1.77
2022-12-04T16:19:37.052Z,2.03
2022-12-04T16:22:20.341Z,1.95
2022-12-04T16:24:51.580Z,2.00
2022-12-04T16:27:24.883Z,1.67
2022-12-04T16:29:56.055Z,1.67
2022-12-04T16:32:33.544Z,1.80
2022-12-04T16:35:05.016Z,1.90
2022-12-04T16:37:36.034Z,2.08
2022-12-04T16:40:08.323Z,1.92
2022-12-04T16:42:39.276Z,2.03
2022-12-04T16:45:24.095Z,1.67
2022-12-04T16:47:54.716Z,2.08
2022-12-04T16:50:24.983Z,1.95
2022-12-04T16:52:58.612Z,2.10
2022-12-04T16:55:41.992Z,2.08
2022-12-04T16:58:12.647Z,1.35
2022-12-04T17:00:45.825Z,2.05
2022-12-04T17:03:28.688Z,1.80
2022-12-04T17:06:00.179Z,1.95
2022-12-04T17:08:34.484Z,1.88
2022-12-04T17:11:05.393Z,1.73
2022-12-04T17:13:35.657Z,1.70
2022-12-04T17:16:06.445Z,2.15
2022-12-04T17:18:36.804Z,1.63
2022-12-04T17:21:12.382Z,2.15
2022-12-04T17:23:44.256Z,1.80
2022-12-04T17:26:25.430Z,1.65
2022-12-04T17:28:56.299Z,1.42
2022-12-04T17:31:28.860Z,1.73
2022-12-04T17:33:59.797Z,1.77
2022-12-04T17:36:30.179Z,1.65
2022-12-04T17:39:05.317Z,1.58
2022-12-04T17:41:36.352Z,1.67
2022-12-04T17:44:06.816Z,1.77
2022-12-04T17:46:37.073Z,1.80
2022-12-04T17:49:07.758Z,1.58
2022-12-04T17:51:38.189Z,1.98
2022-12-04T17:54:17.685Z,1.75
2022-12-04T17:56:52.264Z,1.42
2022-12-04T17:59:25.069Z,1.67
2022-12-04T18:01:55.923Z,1.33
2022-12-04T18:04:26.787Z,2.22
2022-12-04T18:06:58.155Z,1.52
2022-12-04T18:09:28.368Z,1.35
2022-12-04T18:12:00.254Z,1.50
2022-12-04T18:14:31.738Z,1.52
2022-12-04T18:17:03.527Z,1.58
2022-12-04T18:19:34.608Z,1.48
2022-12-04T18:22:05.211Z,1.15
2022-12-04T18:24:35.976Z,1.30
2022-12-04T18:27:08.409Z,1.40
2022-12-04T18:29:38.768Z,1.60
2022-12-04T18:32:09.481Z,1.25
2022-12-04T18:34:40.332Z,1.80
2022-12-04T18:37:11.009Z,1.27
2022-12-04T18:39:41.333Z,1.58
2022-12-04T18:42:11.661Z,1.50
2022-12-04T18:44:42.924Z,1.90
2022-12-04T18:47:13.659Z,1.83
2022-12-04T18:49:44.057Z,1.80
2022-12-04T18:52:14.485Z,1.88
2022-12-04T18:54:45.651Z,1.73
2022-12-04T18:57:18.359Z,1.23
2022-12-04T18:59:51.634Z,1.48
2022-12-04T19:02:22.582Z,1.70
2022-12-04T19:04:53.382Z,1.30
2022-12-04T19:07:24.084Z,1.48
2022-12-04T19:10:11.962Z,1.38
2022-12-04T19:12:42.828Z,1.85
2022-12-04T19:15:13.625Z,1.50
2022-12-04T19:17:45.123Z,1.80
2022-12-04T19:20:16.052Z,1.90
2022-12-04T19:22:46.825Z,1.52
2022-12-04T19:25:17.821Z,1.80
2022-12-04T19:27:48.464Z,1.40
2022-12-04T19:30:19.851Z,1.77
2022-12-04T19:32:50.110Z,1.20
2022-12-04T19:35:20.370Z,1.52
2022-12-04T19:37:53.261Z,1.88
2022-12-04T19:40:24.394Z,1.40
2022-12-04T19:42:59.513Z,1.80
2022-12-04T19:45:33.337Z,1.92
2022-12-04T19:48:03.679Z,2.35
2022-12-04T19:50:35.099Z,1.65
2022-12-04T19:53:05.891Z,1.90
2022-12-04T19:55:38.897Z,1.80
2022-12-04T19:58:09.613Z,1.95
2022-12-04T20:00:41.249Z,1.98
2022-12-04T20:03:12.248Z,1.52
2022-12-04T20:05:42.449Z,1.63
2022-12-04T20:10:40.629Z,1.95
2022-12-04T20:13:11.023Z,1.80
2022-12-04T20:15:41.988Z,1.88
2022-12-04T20:18:12.775Z,2.58
2022-12-04T20:20:47.054Z,2.13
2022-12-04T20:23:17.497Z,2.67
2022-12-04T20:25:50.034Z,2.05
2022-12-04T20:28:20.781Z,1.33
2022-12-04T20:30:51.859Z,1.67
2022-12-04T20:33:22.105Z,1.77
2022-12-04T20:35:52.683Z,1.55
2022-12-04T20:38:27.156Z,1.70
2022-12-04T20:40:57.418Z,2.17
2022-12-04T20:43:29.321Z,1.05
2022-12-04T20:46:01.280Z,1.15
2022-12-04T20:48:31.662Z,1.20
2022-12-04T20:51:03.993Z,1.17
2022-12-04T20:53:34.226Z,2.05
2022-12-04T20:56:04.455Z,1.25
2022-12-04T20:58:34.820Z,1.10
2022-12-04T21:01:13.696Z,0.85
2022-12-04T21:03:45.472Z,0.95
2022-12-04T21:06:40.095Z,1.00
2022-12-04T21:09:28.913Z,0.98
2022-12-04T21:11:59.648Z,1.60
2022-12-04T21:14:50.320Z,1.05
2022-12-04T21:17:22.195Z,1.25
2022-12-04T21:19:53.466Z,1.30
2022-12-04T21:22:24.407Z,1.38
2022-12-04T21:24:55.099Z,1.13
2022-12-04T21:27:25.871Z,1.50
2022-12-04T21:29:58.070Z,0.95
2022-12-04T21:32:29.265Z,0.90
2022-12-04T21:34:59.550Z,0.90
2022-12-04T21:37:29.938Z,0.90
2022-12-04T21:40:00.971Z,0.85
2022-12-04T21:42:34.567Z,0.90
2022-12-04T21:45:08.096Z,1.00
2022-12-04T21:50:36.771Z,1.05
2022-12-04T21:53:08.730Z,0.90
2022-12-04T21:55:42.851Z,1.30
2022-12-04T21:58:13.194Z,0.88
2022-12-04T22:00:56.128Z,1.33
2022-12-04T22:03:33.426Z,1.10
2022-12-04T22:06:23.835Z,1.45
2022-12-04T22:09:08.494Z,1.02
2022-12-04T22:11:46.925Z,0.88
2022-12-04T22:14:17.341Z,1.23
2022-12-04T22:16:47.687Z,1.92
2022-12-04T22:19:22.037Z,0.75
2022-12-04T22:21:52.796Z,0.85
2022-12-04T22:24:23.106Z,0.90
2022-12-04T22:26:53.585Z,1.10
2022-12-04T22:32:14.159Z,1.45
2022-12-04T22:34:44.928Z,1.23
2022-12-04T22:37:17.220Z,1.15
2022-12-04T22:39:47.488Z,1.85
2022-12-04T22:42:17.945Z,0.90
2022-12-04T22:44:48.313Z,1.02
2022-12-04T22:47:18.977Z,0.70
2022-12-04T22:49:52.204Z,1.10
2022-12-04T22:52:23.123Z,1.05
2022-12-04T22:54:57.457Z,1.40
2022-12-04T22:57:30.604Z,1.25
2022-12-04T23:00:01.354Z,0.90
2022-12-04T23:02:33.466Z,1.00
2022-12-04T23:05:04.247Z,0.85
2022-12-04T23:07:34.651Z,1.00
2022-12-04T23:10:04.894Z,1.85
2022-12-04T23:12:35.133Z,1.10
2022-12-04T23:15:05.474Z,1.17
2022-12-04T23:17:35.725Z,1.10
2022-12-04T23:20:06.076Z,1.20
2022-12-04T23:22:36.778Z,1.50
2022-12-04T23:25:07.499Z,1.10
2022-12-04T23:27:37.799Z,1.10
2022-12-04T23:30:09.128Z,0.95
2022-12-04T23:32:40.192Z,1.05
2022-12-04T23:35:10.827Z,1.48
2022-12-04T23:37:41.192Z,1.45
2022-12-04T23:40:12.007Z,1.30
2022-12-04T23:42:42.319Z,1.05
2022-12-04T23:45:13.051Z,1.02
2022-12-04T23:47:43.196Z,0.80
2022-12-04T23:50:13.540Z,1.27
2022-12-04T23:52:44.174Z,0.98
2022-12-04T23:55:14.427Z,1.30
2022-12-04T23:57:44.650Z,0.85
